Church Fenton, United Kingdom
Current Conditions -  °F | °C
As of 1:50 AM on Saturday 29 Nov 2014 (Local Time) from EGXU Reporting Station
Overcast Overcast  
Wind Chill: 50°   Ceiling: 900
Heat Index: 50°   Visibility: 1.8mi
Dew Point: 48°   Wind: 7mph
Humidity: 94%   Direction: 50°NE
Pressure: 29.83"   Gusts: NA
Location:  53.83°N, 1.2°W
Report Text: EGXU 290150Z AUTO 05006KT 3000 // OVC009/// 10/09 Q1010
Loading
Personal Weather Stations






























Interactive Weather Map New forecast layout! Learn more

10-Day Weather Forecast

Advertisements
Track Severe Weather on mobile